Date,TemperatureHighF,TemperatureAvgF,TemperatureLowF,DewpointHighF,DewpointAvgF,DewpointLowF,HumidityHigh,HumidityAvg,HumidityLow,PressureMaxIn,PressureMinIn,WindSpeedMaxMPH,WindSpeedAvgMPH,GustSpeedMaxMPH,PrecipitationSumIn
2013-3-1,49.1,47.7,44.2,48.0,46.8,43.0,97,97,96,30.32,30.28,3,0,6,2.43
2013-3-2,48.7,44.6,37.0,48.0,43.5,34.0,97,95,90,30.28,30.04,4,0,12,0.92
2013-3-3,48.6,38.2,30.0,38.0,33.4,29.0,97,84,58,30.37,30.17,4,1,7,0.01
2013-3-4,49.6,39.3,29.6,37.0,31.6,24.0,96,76,54,30.37,30.03,5,0,6,0.00
2013-3-5,45.0,40.1,35.7,38.0,33.0,27.0,95,76,58,30.04,29.83,4,0,7,0.09
2013-3-6,45.1,41.2,38.0,40.0,38.6,37.0,96,90,78,29.92,29.68,1,0,4,0.08
2013-3-7,46.1,40.0,34.6,41.0,37.8,34.0,96,92,80,30.17,29.93,3,0,4,0.08
2013-3-8,49.4,39.8,32.1,41.0,36.2,31.0,97,87,66,30.30,30.15,5,1,9,0.01
2013-3-9,52.6,41.9,32.4,41.0,35.7,31.0,97,80,52,30.54,30.30,3,0,8,0.01
2013-3-10,44.6,41.6,39.9,42.0,38.8,35.0,94,89,82,30.55,30.47,3,0,4,0.02
2013-3-11,48.9,42.9,37.9,41.0,38.6,36.0,96,85,65,30.49,30.19,4,0,6,0.17
2013-3-12,48.8,44.3,38.8,48.0,43.3,37.0,97,96,93,30.18,30.04,5,0,8,2.83
2013-3-13,48.9,48.3,47.4,48.0,47.5,46.0,97,96,95,30.22,30.08,3,0,6,2.21
2013-3-14,49.2,47.2,43.0,48.0,46.1,42.0,97,96,91,30.17,30.06,3,0,6,1.20
2013-3-15,50.5,46.5,42.9,48.0,45.3,42.0,98,95,89,30.25,30.16,1,0,3,0.20
2013-3-16,46.9,42.2,36.4,45.0,39.2,34.0,96,89,72,30.02,29.84,5,1,13,0.18
2013-3-17,46.5,38.4,30.0,36.0,32.1,29.0,97,80,52,30.18,29.92,10,1,16,0.00
2013-3-18,47.9,40.4,33.8,37.0,32.9,28.0,96,77,49,30.30,30.07,9,1,17,0.28
2013-3-19,48.1,38.7,31.4,40.0,33.3,29.0,93,82,56,30.30,29.63,8,1,11,0.21
2013-3-20,54.2,43.4,35.4,47.0,40.1,33.0,96,88,67,29.94,29.36,10,2,19,0.83
2013-3-21,46.4,38.5,30.5,36.0,30.3,21.0,97,75,38,30.22,29.95,7,1,12,0.01
2013-3-22,46.1,35.7,30.4,34.0,30.9,28.0,93,84,51,30.45,30.21,3,0,10,0.00
2013-3-23,49.6,39.1,31.0,35.0,30.8,28.0,93,74,44,30.47,30.39,4,0,8,0.00
2013-3-24,53.3,41.2,33.7,34.0,30.1,23.0,86,67,33,30.39,30.21,4,0,7,0.00
2013-3-25,54.2,45.5,38.7,37.0,33.4,29.0,80,65,40,30.22,30.04,7,1,10,0.00
2013-3-26,56.5,45.9,37.1,39.0,35.9,33.0,85,70,48,30.09,30.04,4,0,7,0.00
2013-3-27,59.5,48.5,38.0,41.0,38.5,35.0,90,70,48,30.07,30.01,6,1,8,0.00
2013-3-28,60.0,51.1,43.5,44.0,41.0,39.0,86,70,47,30.20,30.07,5,1,8,0.00
2013-3-29,59.8,49.1,40.3,47.0,42.0,38.0,92,78,58,30.33,30.21,4,0,8,0.00
2013-3-30,63.3,50.8,40.3,46.0,42.0,38.0,93,74,48,30.34,30.16,4,0,9,0.00
2013-3-31,67.9,54.3,40.7,44.0,40.2,37.0,86,62,34,30.16,29.97,4,0,6,0.00